Terminal Aerodrome Forecast
Issued by NWS

Home | Current Version | Previous Version | Graphics & Text | Print | Product List | Glossary On
Versions: 1 2 3 4 5 6 7 8 9 10 11 12 13 14 15 16 17 18 19 20
368
FTUS41 KCLE 131756
TAFFDY
TAF
KFDY 131756Z 1318/1418 16012KT 2SM -SN OVC035
      TEMPO 1318/1321 OVC025
     FM132100 18011KT P6SM -SN OVC070
      TEMPO 1321/1323 BKN020
     FM132300 19010KT 3/4SM -SN OVC025
      TEMPO 1323/1324 OVC015
     FM140000 19010KT 2SM -SHSN BKN015 OVC035
      TEMPO 1400/1402 OVC010
     FM140400 30013KT P6SM BKN007 OVC015
     FM141500 32007KT P6SM FEW015 SCT035=

USA.gov is the U.S. government's official web portal to all federal, state and local government web resources and services.